createdAt,value
2023-05-21T00:01:53.766Z,16.30
2023-05-21T00:04:21.740Z,16.30
2023-05-21T00:06:50.729Z,16.20
2023-05-21T00:09:18.614Z,16.20
2023-05-21T00:11:47.893Z,16.20
2023-05-21T00:14:15.829Z,16.20
2023-05-21T00:16:45.121Z,16.20
2023-05-21T00:19:13.276Z,16.10
2023-05-21T00:21:41.146Z,16.10
2023-05-21T00:24:09.121Z,16.10
2023-05-21T00:26:37.094Z,16.10
2023-05-21T00:29:06.353Z,16.10
2023-05-21T00:31:34.298Z,16.10
2023-05-21T00:34:02.274Z,16.00
2023-05-21T00:36:31.225Z,16.00
2023-05-21T00:38:59.118Z,16.00
2023-05-21T00:41:27.379Z,16.00
2023-05-21T00:43:56.171Z,16.00
2023-05-21T00:46:25.670Z,16.00
2023-05-21T00:48:53.731Z,16.00
2023-05-21T00:51:22.048Z,16.00
2023-05-21T00:53:52.497Z,16.00
2023-05-21T00:56:22.067Z,16.00
2023-05-21T00:58:51.871Z,16.00
2023-05-21T01:01:20.147Z,15.90
2023-05-21T01:03:49.580Z,15.90
2023-05-21T01:06:17.579Z,15.90
2023-05-21T01:08:45.514Z,15.90
2023-05-21T01:11:14.976Z,15.90
2023-05-21T01:13:43.957Z,15.90
2023-05-21T01:16:13.498Z,15.80
2023-05-21T01:18:45.239Z,15.90
2023-05-21T01:21:17.194Z,15.90
2023-05-21T01:23:46.643Z,15.90
2023-05-21T01:26:14.540Z,15.80
2023-05-21T01:28:42.905Z,15.80
2023-05-21T01:31:19.698Z,15.80
2023-05-21T01:33:51.276Z,15.80
2023-05-21T01:36:24.112Z,15.80
2023-05-21T01:39:02.259Z,15.80
2023-05-21T01:41:33.343Z,15.80
2023-05-21T01:44:03.068Z,15.80
2023-05-21T01:46:33.850Z,15.80
2023-05-21T01:49:02.143Z,15.80
2023-05-21T01:51:30.244Z,15.80
2023-05-21T01:53:59.653Z,15.80
2023-05-21T01:56:28.489Z,15.80
2023-05-21T01:58:59.453Z,15.70
2023-05-21T02:01:30.155Z,15.70
2023-05-21T02:03:58.719Z,15.70
2023-05-21T02:06:26.726Z,15.70
2023-05-21T02:08:55.732Z,15.70
2023-05-21T02:11:25.202Z,15.70
2023-05-21T02:13:54.450Z,15.70
2023-05-21T02:16:22.737Z,15.70
2023-05-21T02:18:53.662Z,15.70
2023-05-21T02:21:21.939Z,15.60
2023-05-21T02:23:49.835Z,15.60
2023-05-21T02:26:18.449Z,15.60
2023-05-21T02:28:48.122Z,15.60
2023-05-21T02:31:16.254Z,15.60
2023-05-21T02:33:44.402Z,15.60
2023-05-21T02:36:13.390Z,15.60
2023-05-21T02:38:43.759Z,15.60
2023-05-21T02:41:13.651Z,15.60
2023-05-21T02:43:41.528Z,15.60
2023-05-21T02:46:10.825Z,15.60
2023-05-21T02:48:38.677Z,15.60
2023-05-21T02:51:06.698Z,15.60
2023-05-21T02:53:34.627Z,15.60
2023-05-21T02:56:02.541Z,15.60
2023-05-21T02:58:30.867Z,15.50
2023-05-21T03:00:58.789Z,15.50
2023-05-21T03:03:28.517Z,15.50
2023-05-21T03:05:56.588Z,15.60
2023-05-21T03:08:24.828Z,15.60
2023-05-21T03:10:52.865Z,15.60
2023-05-21T03:13:21.573Z,15.50
2023-05-21T03:15:49.871Z,15.60
2023-05-21T03:18:17.881Z,15.50
2023-05-21T03:20:47.270Z,15.50
2023-05-21T03:23:16.889Z,15.50
2023-05-21T03:25:46.058Z,15.50
2023-05-21T03:28:14.315Z,15.50
2023-05-21T03:30:46.234Z,15.40
2023-05-21T03:33:15.577Z,15.40
2023-05-21T03:35:43.810Z,15.40
2023-05-21T03:38:13.198Z,15.40
2023-05-21T03:40:41.372Z,15.40
2023-05-21T03:43:09.369Z,15.50
2023-05-21T03:45:37.975Z,15.50
2023-05-21T03:48:06.862Z,15.50
2023-05-21T03:50:34.887Z,15.50
2023-05-21T03:53:03.134Z,15.50
2023-05-21T03:55:32.642Z,15.50
2023-05-21T03:58:00.739Z,15.50
2023-05-21T04:00:28.776Z,15.50
2023-05-21T04:02:56.863Z,15.50
2023-05-21T04:05:25.088Z,15.40
2023-05-21T04:07:53.132Z,15.40
2023-05-21T04:10:22.026Z,15.50
2023-05-21T04:12:52.446Z,15.50
2023-05-21T04:15:20.638Z,15.40
2023-05-21T04:17:50.334Z,15.40
2023-05-21T04:20:18.625Z,15.40
2023-05-21T04:22:46.616Z,15.50
2023-05-21T04:25:14.847Z,15.40
2023-05-21T04:27:47.588Z,15.30
2023-05-21T04:30:17.425Z,15.30
2023-05-21T04:33:05.914Z,15.30
2023-05-21T04:35:54.267Z,15.40
2023-05-21T04:38:22.263Z,15.40
2023-05-21T04:40:51.924Z,15.40
2023-05-21T04:43:26.264Z,15.50
2023-05-21T04:45:56.048Z,15.50
2023-05-21T04:48:24.848Z,15.50
2023-05-21T04:50:53.571Z,15.40
2023-05-21T04:53:21.916Z,15.40
2023-05-21T04:55:50.039Z,15.40
2023-05-21T04:58:19.196Z,15.40
2023-05-21T05:00:47.357Z,15.40
2023-05-21T05:03:17.228Z,15.40
2023-05-21T05:05:45.742Z,15.50
2023-05-21T05:08:15.867Z,15.50
2023-05-21T05:10:44.292Z,15.50
2023-05-21T05:13:12.632Z,15.60
2023-05-21T05:15:41.172Z,15.60
2023-05-21T05:18:09.401Z,15.60
2023-05-21T05:20:38.832Z,15.60
2023-05-21T05:23:06.875Z,15.60
2023-05-21T05:25:34.985Z,15.60
2023-05-21T05:28:05.255Z,15.60
2023-05-21T05:30:33.980Z,15.70
2023-05-21T05:33:02.113Z,15.70
2023-05-21T05:35:30.204Z,15.70
2023-05-21T05:37:59.718Z,15.80
2023-05-21T05:40:27.707Z,15.80
2023-05-21T05:42:55.855Z,15.90
2023-05-21T05:45:23.888Z,15.90
2023-05-21T05:47:51.877Z,16.00
2023-05-21T05:50:19.917Z,16.10
2023-05-21T05:52:50.426Z,16.10
2023-05-21T05:55:19.890Z,16.20
2023-05-21T05:57:47.812Z,16.40
2023-05-21T06:00:16.699Z,16.60
2023-05-21T06:02:44.678Z,16.70
2023-05-21T06:05:12.630Z,16.80
2023-05-21T06:07:41.639Z,16.90
2023-05-21T06:10:10.205Z,17.00
2023-05-21T06:12:39.489Z,17.00
2023-05-21T06:15:08.557Z,17.10
2023-05-21T06:17:36.608Z,17.20
2023-05-21T06:20:05.193Z,17.30
2023-05-21T06:22:33.112Z,17.40
2023-05-21T06:25:01.072Z,17.50
2023-05-21T06:27:28.904Z,17.60
2023-05-21T06:29:58.319Z,17.70
2023-05-21T06:32:26.489Z,17.90
2023-05-21T06:34:54.598Z,18.10
2023-05-21T06:37:24.773Z,18.20
2023-05-21T06:39:53.945Z,18.30
2023-05-21T06:42:21.991Z,18.40
2023-05-21T06:44:49.907Z,18.40
2023-05-21T06:47:19.355Z,18.60
2023-05-21T06:49:47.399Z,18.70
2023-05-21T06:52:15.411Z,18.80
2023-05-21T06:54:43.435Z,18.90
2023-05-21T06:57:11.474Z,19.00
2023-05-21T06:59:39.523Z,19.10
2023-05-21T07:02:07.920Z,19.40
2023-05-21T07:04:37.399Z,19.50
2023-05-21T07:07:05.660Z,19.60
2023-05-21T07:09:33.626Z,19.70
2023-05-21T07:12:02.260Z,19.70
2023-05-21T07:14:30.432Z,19.60
2023-05-21T07:16:58.547Z,19.80
2023-05-21T07:19:26.689Z,19.90
2023-05-21T07:21:56.803Z,20.10
2023-05-21T07:24:27.591Z,20.00
2023-05-21T07:26:55.975Z,20.00
2023-05-21T07:29:24.125Z,20.20
2023-05-21T07:31:52.193Z,20.30
2023-05-21T07:34:20.245Z,20.50
2023-05-21T07:36:48.276Z,20.70
2023-05-21T07:39:17.966Z,20.90
2023-05-21T07:41:45.975Z,20.90
2023-05-21T07:44:14.168Z,21.00
2023-05-21T07:46:42.495Z,21.20
2023-05-21T07:49:16.806Z,21.30
2023-05-21T07:51:45.431Z,21.40
2023-05-21T07:54:13.421Z,21.50
2023-05-21T07:56:43.135Z,21.40
2023-05-21T07:59:12.785Z,21.60
2023-05-21T08:01:43.412Z,21.70
2023-05-21T08:04:11.598Z,21.90
2023-05-21T08:06:39.801Z,21.90
2023-05-21T08:09:08.231Z,21.90
2023-05-21T08:11:36.351Z,21.90
2023-05-21T08:14:05.884Z,21.90
2023-05-21T08:16:34.001Z,22.00
2023-05-21T08:19:02.133Z,21.90
2023-05-21T08:21:30.207Z,21.90
2023-05-21T08:23:59.941Z,22.10
2023-05-21T08:26:27.965Z,22.10
2023-05-21T08:28:56.219Z,22.20
2023-05-21T08:31:25.579Z,22.30
2023-05-21T08:33:54.414Z,22.30
2023-05-21T08:36:22.669Z,22.30
2023-05-21T08:38:50.778Z,22.40
2023-05-21T08:41:22.093Z,22.60
2023-05-21T08:43:56.651Z,22.60
2023-05-21T08:46:29.721Z,22.50
2023-05-21T08:48:58.787Z,22.50
2023-05-21T08:51:27.615Z,22.50
2023-05-21T08:54:14.485Z,22.50
2023-05-21T08:56:49.621Z,22.60
2023-05-21T08:59:19.294Z,22.70
2023-05-21T09:01:50.037Z,22.80
2023-05-21T09:04:21.793Z,22.90
2023-05-21T09:06:50.914Z,23.00
2023-05-21T09:09:26.184Z,22.90
2023-05-21T09:11:54.354Z,22.90
2023-05-21T09:14:24.195Z,22.80
2023-05-21T09:16:53.736Z,22.80
2023-05-21T09:19:22.324Z,22.80
2023-05-21T09:21:52.831Z,22.80
2023-05-21T09:24:23.679Z,22.90
2023-05-21T09:26:52.497Z,23.10
2023-05-21T09:29:20.772Z,23.10
2023-05-21T09:31:48.884Z,23.30
2023-05-21T09:34:18.542Z,23.40
2023-05-21T09:36:47.111Z,23.40
2023-05-21T09:39:29.189Z,23.20
2023-05-21T09:41:58.246Z,23.30
2023-05-21T09:44:26.250Z,23.30
2023-05-21T09:46:59.488Z,23.20
2023-05-21T09:49:29.121Z,23.10
2023-05-21T09:51:57.906Z,23.10
2023-05-21T09:54:25.964Z,23.10
2023-05-21T09:56:54.248Z,23.20
2023-05-21T09:59:22.555Z,23.30
2023-05-21T10:01:52.825Z,23.50
2023-05-21T10:04:22.718Z,23.50
2023-05-21T10:07:10.582Z,23.50
2023-05-21T10:09:39.191Z,23.60
2023-05-21T10:12:08.385Z,23.60
2023-05-21T10:14:36.858Z,23.60
2023-05-21T10:17:07.393Z,23.50
2023-05-21T10:19:36.412Z,23.60
2023-05-21T10:22:05.758Z,23.50
2023-05-21T10:24:36.016Z,23.70
2023-05-21T10:27:04.868Z,23.70
2023-05-21T10:29:33.102Z,23.70
2023-05-21T10:32:03.186Z,23.70
2023-05-21T10:34:33.133Z,23.70
2023-05-21T10:37:03.111Z,23.80
2023-05-21T10:39:31.644Z,24.00
2023-05-21T10:42:11.058Z,24.30
2023-05-21T10:44:53.723Z,24.40
2023-05-21T10:47:54.805Z,24.60
2023-05-21T10:50:40.773Z,25.00
2023-05-21T10:53:17.950Z,25.10
2023-05-21T10:55:58.399Z,25.30
2023-05-21T10:58:52.554Z,25.80
2023-05-21T11:01:39.377Z,25.90
2023-05-21T11:04:08.772Z,25.80
2023-05-21T11:06:41.661Z,25.90
2023-05-21T11:09:16.840Z,26.00
2023-05-21T11:11:46.254Z,26.10
2023-05-21T11:14:39.145Z,26.40
2023-05-21T11:17:40.081Z,27.00
2023-05-21T11:20:11.033Z,27.50
2023-05-21T11:22:59.448Z,27.70
2023-05-21T11:25:27.605Z,28.00
2023-05-21T11:28:13.949Z,28.60
2023-05-21T11:30:43.358Z,29.80
2023-05-21T11:33:20.841Z,31.20
2023-05-21T11:36:00.103Z,32.40
2023-05-21T11:38:30.130Z,33.10
2023-05-21T11:41:02.942Z,33.80
2023-05-21T11:43:30.916Z,33.40
2023-05-21T11:46:00.779Z,33.50
2023-05-21T11:48:30.548Z,33.70
2023-05-21T11:50:59.789Z,33.90
2023-05-21T11:53:30.484Z,33.50
2023-05-21T11:55:59.704Z,33.70
2023-05-21T11:58:32.104Z,33.50
2023-05-21T12:01:01.442Z,33.50
2023-05-21T12:03:30.615Z,33.40
2023-05-21T12:06:06.450Z,33.40
2023-05-21T12:08:34.522Z,33.10
2023-05-21T12:11:02.713Z,33.30
2023-05-21T12:13:30.824Z,33.60
2023-05-21T12:15:58.835Z,33.90
2023-05-21T12:18:28.342Z,34.20
2023-05-21T12:20:56.583Z,34.10
2023-05-21T12:23:25.301Z,34.10
2023-05-21T12:25:53.707Z,33.70
2023-05-21T12:28:22.353Z,32.40
2023-05-21T12:30:51.076Z,31.60
2023-05-21T12:33:19.907Z,31.70
2023-05-21T12:35:52.294Z,31.90
2023-05-21T12:38:20.427Z,31.90
2023-05-21T12:40:48.481Z,31.70
2023-05-21T12:43:16.559Z,31.70
2023-05-21T12:45:44.809Z,31.50
2023-05-21T12:48:12.838Z,30.60
2023-05-21T12:50:42.124Z,30.30
2023-05-21T12:53:12.658Z,30.90
2023-05-21T12:55:41.091Z,31.30
2023-05-21T12:58:09.568Z,31.60
2023-05-21T13:00:38.298Z,31.00
2023-05-21T13:03:07.288Z,30.80
2023-05-21T13:05:35.903Z,31.30
2023-05-21T13:08:04.130Z,31.60
2023-05-21T13:10:33.498Z,31.80
2023-05-21T13:13:01.734Z,32.00
2023-05-21T13:15:29.742Z,32.10
2023-05-21T13:18:01.105Z,32.30
2023-05-21T13:20:29.485Z,32.70
2023-05-21T13:22:57.581Z,32.10
2023-05-21T13:25:28.993Z,31.20
2023-05-21T13:27:58.978Z,30.50
2023-05-21T13:30:27.135Z,30.80
2023-05-21T13:32:55.861Z,31.20
2023-05-21T13:35:23.858Z,31.40
2023-05-21T13:37:51.830Z,31.10
2023-05-21T13:40:19.806Z,31.00
2023-05-21T13:42:49.424Z,31.00
2023-05-21T13:45:20.155Z,30.90
2023-05-21T13:47:49.004Z,30.90
2023-05-21T13:50:17.628Z,30.80
2023-05-21T13:52:45.923Z,30.50
2023-05-21T13:55:15.782Z,30.40
2023-05-21T13:57:44.049Z,30.40
2023-05-21T14:00:15.191Z,30.30
2023-05-21T14:02:45.346Z,30.40
2023-05-21T14:05:13.701Z,30.30
2023-05-21T14:07:41.999Z,30.10
2023-05-21T14:10:10.658Z,30.00
2023-05-21T14:12:38.704Z,29.80
2023-05-21T14:15:07.827Z,29.60
2023-05-21T14:17:35.954Z,29.40
2023-05-21T14:20:06.264Z,29.40
2023-05-21T14:22:34.167Z,29.50
2023-05-21T14:25:03.225Z,29.60
2023-05-21T14:27:31.239Z,29.40
2023-05-21T14:29:59.242Z,29.20
2023-05-21T14:32:27.310Z,29.10
2023-05-21T14:34:56.658Z,29.00
2023-05-21T14:37:25.952Z,28.80
2023-05-21T14:39:53.828Z,28.70
2023-05-21T14:42:21.675Z,28.60
2023-05-21T14:44:49.727Z,28.60
2023-05-21T14:47:17.668Z,28.60
2023-05-21T14:49:45.630Z,28.70
2023-05-21T14:52:13.544Z,28.60
2023-05-21T14:54:42.745Z,28.50
2023-05-21T14:57:10.834Z,28.60
2023-05-21T14:59:38.730Z,28.60
2023-05-21T15:02:06.892Z,28.70
2023-05-21T15:04:34.898Z,28.70
2023-05-21T15:07:02.853Z,28.80
2023-05-21T15:09:30.752Z,28.90
2023-05-21T15:11:59.960Z,28.90
2023-05-21T15:14:27.888Z,28.90
2023-05-21T15:16:55.834Z,29.10
2023-05-21T15:19:23.915Z,29.30
2023-05-21T15:21:52.495Z,29.50
2023-05-21T15:24:20.468Z,29.60
2023-05-21T15:26:49.314Z,29.50
2023-05-21T15:29:18.610Z,29.60
2023-05-21T15:31:46.553Z,29.70
2023-05-21T15:34:14.616Z,29.80
2023-05-21T15:36:42.592Z,30.00
2023-05-21T15:39:10.559Z,30.00
2023-05-21T15:41:38.635Z,30.10
2023-05-21T15:44:06.643Z,30.10
2023-05-21T15:46:35.974Z,30.20
2023-05-21T15:49:03.893Z,30.30
2023-05-21T15:51:31.841Z,30.20
2023-05-21T15:54:00.021Z,30.30
2023-05-21T15:56:28.042Z,30.10
2023-05-21T15:59:03.995Z,30.00
2023-05-21T16:01:31.991Z,29.90
2023-05-21T16:04:02.322Z,29.70
2023-05-21T16:06:48.722Z,29.70
2023-05-21T16:09:38.148Z,29.60
2023-05-21T16:12:06.911Z,29.50
2023-05-21T16:14:53.469Z,29.40
2023-05-21T16:17:40.104Z,29.30
2023-05-21T16:20:10.344Z,29.20
2023-05-21T16:22:38.350Z,29.10
2023-05-21T16:25:07.273Z,29.10
2023-05-21T16:27:53.945Z,29.00
2023-05-21T16:30:22.048Z,29.00
2023-05-21T16:32:50.037Z,29.10
2023-05-21T16:35:19.451Z,28.90
2023-05-21T16:37:47.512Z,28.70
2023-05-21T16:40:15.545Z,28.40
2023-05-21T16:42:43.755Z,28.30
2023-05-21T16:45:13.323Z,28.50
2023-05-21T16:47:41.293Z,28.50
2023-05-21T16:50:10.538Z,28.70
2023-05-21T16:52:39.833Z,28.80
2023-05-21T16:55:08.295Z,29.00
2023-05-21T16:57:36.343Z,29.10
2023-05-21T17:00:05.096Z,29.10
2023-05-21T17:02:33.059Z,29.00
2023-05-21T17:05:01.051Z,29.10
2023-05-21T17:07:28.977Z,29.00
2023-05-21T17:09:58.301Z,29.10
2023-05-21T17:12:26.311Z,29.10
2023-05-21T17:14:54.594Z,29.30
2023-05-21T17:17:22.469Z,29.50
2023-05-21T17:19:50.357Z,29.60
2023-05-21T17:22:18.462Z,29.70
2023-05-21T17:24:46.865Z,29.80
2023-05-21T17:27:16.288Z,29.70
2023-05-21T17:29:44.489Z,29.70
2023-05-21T17:32:12.608Z,29.60
2023-05-21T17:34:40.720Z,29.20
2023-05-21T17:37:08.703Z,29.10
2023-05-21T17:39:36.612Z,29.00
2023-05-21T17:42:04.909Z,28.90
2023-05-21T17:44:36.302Z,28.70
2023-05-21T17:47:04.363Z,28.60
2023-05-21T17:49:43.640Z,28.50
2023-05-21T17:52:11.638Z,28.40
2023-05-21T17:54:39.683Z,28.10
2023-05-21T17:57:07.769Z,27.90
2023-05-21T17:59:40.282Z,27.60
2023-05-21T18:02:08.658Z,27.50
2023-05-21T18:04:36.778Z,27.40
2023-05-21T18:07:05.102Z,27.20
2023-05-21T18:09:33.147Z,27.00
2023-05-21T18:12:01.564Z,26.80
2023-05-21T18:14:29.741Z,26.70
2023-05-21T18:17:27.954Z,26.50
2023-05-21T18:19:57.454Z,26.40
2023-05-21T18:22:25.632Z,26.20
2023-05-21T18:24:53.744Z,26.20
2023-05-21T18:27:22.017Z,26.00
2023-05-21T18:29:50.113Z,25.90
2023-05-21T18:32:18.228Z,25.80
2023-05-21T18:34:47.683Z,25.70
2023-05-21T18:37:18.441Z,25.60
2023-05-21T18:39:46.501Z,25.50
2023-05-21T18:42:15.550Z,25.40
2023-05-21T18:44:45.884Z,25.30
2023-05-21T18:47:14.949Z,25.10
2023-05-21T18:49:43.034Z,25.00
2023-05-21T18:52:11.122Z,24.80
2023-05-21T18:54:40.578Z,24.80
2023-05-21T18:57:08.624Z,24.60
2023-05-21T18:59:38.683Z,24.40
2023-05-21T19:02:06.834Z,24.30
2023-05-21T19:04:34.922Z,24.20
2023-05-21T19:07:03.922Z,24.00
2023-05-21T19:09:31.917Z,23.90
2023-05-21T19:12:01.605Z,23.70
2023-05-21T19:14:29.611Z,23.50
2023-05-21T19:16:57.644Z,23.40
2023-05-21T19:19:25.713Z,23.30
2023-05-21T19:21:54.338Z,23.20
2023-05-21T19:24:22.412Z,23.00
2023-05-21T19:26:50.522Z,23.00
2023-05-21T19:29:20.088Z,22.90
2023-05-21T19:31:48.193Z,22.80
2023-05-21T19:34:16.266Z,22.60
2023-05-21T19:36:52.764Z,22.50
2023-05-21T19:39:22.426Z,22.40
2023-05-21T19:41:51.633Z,22.30
2023-05-21T19:44:21.088Z,22.20
2023-05-21T19:46:49.912Z,22.10
2023-05-21T19:49:19.914Z,22.00
2023-05-21T19:51:49.508Z,21.90
2023-05-21T19:54:18.393Z,21.90
2023-05-21T19:56:46.408Z,21.80
2023-05-21T19:59:14.504Z,21.80
2023-05-21T20:01:44.376Z,21.70
2023-05-21T20:04:12.742Z,21.70
2023-05-21T20:06:40.939Z,21.60
2023-05-21T20:09:10.771Z,21.60
2023-05-21T20:11:38.791Z,21.50
2023-05-21T20:14:06.840Z,21.50
2023-05-21T20:16:35.058Z,21.40
2023-05-21T20:19:05.829Z,21.40
2023-05-21T20:21:33.960Z,21.30
2023-05-21T20:24:03.354Z,21.30
2023-05-21T20:26:34.987Z,21.30
2023-05-21T20:29:03.073Z,21.20
2023-05-21T20:31:31.307Z,21.10
2023-05-21T20:34:00.748Z,21.10
2023-05-21T20:36:33.764Z,21.00
2023-05-21T20:39:02.410Z,21.00
2023-05-21T20:41:35.627Z,20.90
2023-05-21T20:44:05.428Z,20.90
2023-05-21T20:46:34.210Z,20.80
2023-05-21T20:49:02.355Z,20.70
2023-05-21T20:51:32.068Z,20.60
2023-05-21T20:54:00.151Z,20.60
2023-05-21T20:56:40.986Z,20.50
2023-05-21T20:59:11.782Z,20.50
2023-05-21T21:01:40.851Z,20.40
2023-05-21T21:04:09.626Z,20.40
2023-05-21T21:06:40.291Z,20.30
2023-05-21T21:09:08.577Z,20.30
2023-05-21T21:11:36.936Z,20.20
2023-05-21T21:14:05.127Z,20.10
2023-05-21T21:16:33.271Z,20.10
2023-05-21T21:19:02.268Z,20.10
2023-05-21T21:21:31.267Z,20.00
2023-05-21T21:24:00.698Z,20.00
2023-05-21T21:26:28.803Z,19.90
2023-05-21T21:28:56.840Z,19.90
2023-05-21T21:31:25.236Z,19.90
2023-05-21T21:33:53.494Z,19.90
2023-05-21T21:36:21.769Z,19.80
2023-05-21T21:38:49.751Z,19.70
2023-05-21T21:41:20.333Z,19.70
2023-05-21T21:43:48.394Z,19.60
2023-05-21T21:46:16.622Z,19.60
2023-05-21T21:48:44.579Z,19.50
2023-05-21T21:51:14.002Z,19.50
2023-05-21T21:53:42.034Z,19.50
2023-05-21T21:56:10.280Z,19.60
2023-05-21T21:58:39.587Z,19.60
2023-05-21T22:01:07.566Z,19.60
2023-05-21T22:03:35.632Z,19.60
2023-05-21T22:06:03.571Z,19.60
2023-05-21T22:08:43.555Z,19.50
2023-05-21T22:11:11.860Z,19.40
2023-05-21T22:13:42.525Z,19.40
2023-05-21T22:16:11.858Z,19.30
2023-05-21T22:18:41.850Z,19.20
2023-05-21T22:21:10.896Z,19.20
2023-05-21T22:23:39.399Z,19.10
2023-05-21T22:26:07.638Z,19.10
2023-05-21T22:28:35.664Z,19.00
2023-05-21T22:31:05.683Z,18.90
2023-05-21T22:33:33.826Z,18.90
2023-05-21T22:36:01.813Z,18.80
2023-05-21T22:38:29.753Z,18.80
2023-05-21T22:40:58.020Z,18.70
2023-05-21T22:43:26.634Z,18.70
2023-05-21T22:45:54.539Z,18.60
2023-05-21T22:48:23.806Z,18.60
2023-05-21T22:50:53.318Z,18.60
2023-05-21T22:53:21.556Z,18.60
2023-05-21T22:55:49.550Z,18.60
2023-05-21T22:58:17.877Z,18.70
2023-05-21T23:00:45.966Z,18.70
2023-05-21T23:03:14.100Z,18.80
2023-05-21T23:05:43.462Z,18.90
2023-05-21T23:08:11.523Z,18.90
2023-05-21T23:10:39.553Z,19.00
2023-05-21T23:13:07.724Z,19.10
2023-05-21T23:15:40.076Z,19.10
2023-05-21T23:18:08.897Z,19.20
2023-05-21T23:20:39.531Z,19.10
2023-05-21T23:23:09.960Z,19.20
2023-05-21T23:25:37.893Z,19.20
2023-05-21T23:28:06.106Z,19.20
2023-05-21T23:30:34.115Z,19.20
2023-05-21T23:33:02.130Z,19.30
2023-05-21T23:35:30.369Z,19.20
2023-05-21T23:37:58.311Z,19.10
2023-05-21T23:40:27.603Z,19.10
2023-05-21T23:42:55.570Z,19.00
2023-05-21T23:45:23.610Z,18.90
2023-05-21T23:47:51.690Z,18.80
2023-05-21T23:50:19.621Z,18.70
2023-05-21T23:52:47.808Z,18.60
2023-05-21T23:55:15.902Z,18.50
2023-05-21T23:57:45.229Z,18.50
